AEC137 SKBG-SKRG
Flight info
| Callsign | AEC137 |
|---|---|
| Flight time | 0h 34m |
| Altitude | 24000 |
| Route | EJA2F EJA W26 DIPRA DIPRA3B |
| Aircraft | B738/M-SDE2E3FGHIRWXY/LB1 |
Departure
| Time | 2026-04-30 18:07 |
|---|---|
| Airport | Palonegro Airport (SKBG) |
Arrival
| Time | 2026-04-30 18:41 |
|---|---|
| Airport | Jose Maria Córdova International Airport (SKRG) |
| Time | Latitude | Longitude | Altitude | Speed | Heading |
|---|---|---|---|---|---|
| 2026-04-30 17:41 | 7.12745 | -73.18234 | 3903 ft | 0 kts | 10° |
| 2026-04-30 17:56 | 7.12725 | -73.18238 | 3902 ft | 0 kts | 10° |
| 2026-04-30 17:57 | 7.12692 | -73.18218 | 3901 ft | 0 kts | 283° |
| 2026-04-30 17:58 | 7.12690 | -73.18210 | 3901 ft | 0 kts | 278° |
| 2026-04-30 18:00 | 7.12693 | -73.18226 | 3901 ft | 5 kts | 279° |
| 2026-04-30 18:00 | 7.12661 | -73.18372 | 3899 ft | 12 kts | 168° |
| 2026-04-30 18:01 | 7.12439 | -73.18291 | 3881 ft | 23 kts | 159° |
| 2026-04-30 18:02 | 7.11908 | -73.18092 | 3838 ft | 15 kts | 169° |
| 2026-04-30 18:02 | 7.11680 | -73.18043 | 3821 ft | 2 kts | 236° |
| 2026-04-30 18:03 | 7.11660 | -73.18082 | 3823 ft | 7 kts | 255° |
| 2026-04-30 18:04 | 7.11679 | -73.18109 | 3826 ft | 2 kts | 334° |
| 2026-04-30 18:05 | 7.11681 | -73.18110 | 3826 ft | 0 kts | 337° |
| 2026-04-30 18:06 | 7.14481 | -73.19183 | 4413 ft | 176 kts | 339° |
| 2026-04-30 18:07 | 7.19427 | -73.21078 | 6733 ft | 213 kts | 339° |
| 2026-04-30 18:08 | 7.23993 | -73.22858 | 8326 ft | 259 kts | 332° |
| 2026-04-30 18:09 | 7.25492 | -73.29861 | 10701 ft | 314 kts | 244° |
| 2026-04-30 18:10 | 7.21480 | -73.38222 | 13581 ft | 342 kts | 245° |
| 2026-04-30 18:11 | 7.17573 | -73.47120 | 16703 ft | 356 kts | 245° |
| 2026-04-30 18:11 | 7.14539 | -73.54022 | 18887 ft | 365 kts | 244° |
| 2026-04-30 18:12 | 7.11409 | -73.61110 | 20816 ft | 377 kts | 244° |
| 2026-04-30 18:13 | 7.09271 | -73.65954 | 21997 ft | 385 kts | 244° |
| 2026-04-30 18:13 | 7.05969 | -73.73440 | 23688 ft | 393 kts | 244° |
| 2026-04-30 18:14 | 7.03740 | -73.78489 | 23774 ft | 396 kts | 244° |
| 2026-04-30 18:15 | 7.00023 | -73.85904 | 23774 ft | 395 kts | 239° |
| 2026-04-30 18:15 | 6.95886 | -73.93100 | 23756 ft | 394 kts | 238° |
| 2026-04-30 18:16 | 6.93165 | -73.97884 | 23753 ft | 395 kts | 239° |
| 2026-04-30 18:16 | 6.90458 | -74.02691 | 23750 ft | 394 kts | 239° |
| 2026-04-30 18:17 | 6.89106 | -74.05101 | 23752 ft | 394 kts | 239° |
| 2026-04-30 18:17 | 6.87766 | -74.07489 | 23758 ft | 394 kts | 239° |
| 2026-04-30 18:17 | 6.85066 | -74.12312 | 23766 ft | 394 kts | 239° |
| 2026-04-30 18:18 | 6.83717 | -74.14720 | 23777 ft | 395 kts | 239° |
| 2026-04-30 18:18 | 6.82377 | -74.17117 | 23775 ft | 395 kts | 239° |
| 2026-04-30 18:18 | 6.81021 | -74.19541 | 23778 ft | 395 kts | 239° |
| 2026-04-30 18:18 | 6.79662 | -74.21970 | 23779 ft | 396 kts | 239° |
| 2026-04-30 18:19 | 6.78320 | -74.24370 | 23777 ft | 395 kts | 239° |
| 2026-04-30 18:19 | 6.76964 | -74.26790 | 23775 ft | 395 kts | 239° |
| 2026-04-30 18:19 | 6.75631 | -74.29171 | 23778 ft | 395 kts | 239° |
| 2026-04-30 18:19 | 6.74263 | -74.31612 | 23786 ft | 394 kts | 239° |
| 2026-04-30 18:20 | 6.72924 | -74.34001 | 23796 ft | 394 kts | 239° |
| 2026-04-30 18:20 | 6.71580 | -74.36399 | 23803 ft | 393 kts | 239° |
| 2026-04-30 18:20 | 6.70229 | -74.38808 | 23814 ft | 394 kts | 239° |
| 2026-04-30 18:20 | 6.68886 | -74.41200 | 23825 ft | 394 kts | 239° |
| 2026-04-30 18:21 | 6.67535 | -74.43606 | 23830 ft | 394 kts | 239° |
| 2026-04-30 18:21 | 6.66190 | -74.46001 | 23835 ft | 394 kts | 239° |
| 2026-04-30 18:21 | 6.64859 | -74.48372 | 23838 ft | 394 kts | 239° |
| 2026-04-30 18:21 | 6.63495 | -74.50803 | 23842 ft | 393 kts | 239° |
| 2026-04-30 18:22 | 6.62172 | -74.53191 | 23854 ft | 394 kts | 241° |
| 2026-04-30 18:22 | 6.59991 | -74.58240 | 23873 ft | 395 kts | 248° |
| 2026-04-30 18:22 | 6.59063 | -74.60838 | 23880 ft | 396 kts | 250° |
| 2026-04-30 18:23 | 6.58161 | -74.63466 | 23896 ft | 395 kts | 250° |
| 2026-04-30 18:23 | 6.57270 | -74.66089 | 23914 ft | 395 kts | 250° |
| 2026-04-30 18:23 | 6.56385 | -74.68686 | 23925 ft | 396 kts | 250° |
| 2026-04-30 18:23 | 6.55484 | -74.71312 | 23934 ft | 395 kts | 249° |
| 2026-04-30 18:24 | 6.53669 | -74.76547 | 23955 ft | 395 kts | 249° |
| 2026-04-30 18:24 | 6.52765 | -74.79139 | 23959 ft | 395 kts | 249° |
| 2026-04-30 18:24 | 6.51853 | -74.81749 | 23964 ft | 394 kts | 249° |
| 2026-04-30 18:25 | 6.50953 | -74.84318 | 23975 ft | 395 kts | 249° |
| 2026-04-30 18:25 | 6.49132 | -74.89516 | 23994 ft | 395 kts | 249° |
| 2026-04-30 18:25 | 6.48219 | -74.92119 | 24001 ft | 395 kts | 249° |
| 2026-04-30 18:26 | 6.46382 | -74.97349 | 24026 ft | 394 kts | 249° |
| 2026-04-30 18:26 | 6.45474 | -74.99934 | 24029 ft | 396 kts | 249° |
| 2026-04-30 18:26 | 6.44548 | -75.02570 | 24035 ft | 395 kts | 249° |
| 2026-04-30 18:27 | 6.42732 | -75.07735 | 23969 ft | 397 kts | 249° |
| 2026-04-30 18:27 | 6.41746 | -75.10323 | 23594 ft | 394 kts | 245° |
| 2026-04-30 18:28 | 6.38700 | -75.14762 | 22654 ft | 383 kts | 220° |
| 2026-04-30 18:28 | 6.36576 | -75.16377 | 22093 ft | 381 kts | 210° |
| 2026-04-30 18:28 | 6.31818 | -75.18654 | 21009 ft | 377 kts | 197° |
| 2026-04-30 18:29 | 6.29305 | -75.19418 | 20500 ft | 375 kts | 193° |
| 2026-04-30 18:29 | 6.21792 | -75.21332 | 19001 ft | 369 kts | 192° |
| 2026-04-30 18:30 | 6.16873 | -75.22602 | 18189 ft | 359 kts | 192° |
| 2026-04-30 18:30 | 6.12113 | -75.23875 | 17468 ft | 348 kts | 193° |
| 2026-04-30 18:31 | 6.09772 | -75.24509 | 17151 ft | 339 kts | 193° |
| 2026-04-30 18:31 | 6.05399 | -75.25703 | 16447 ft | 314 kts | 192° |
| 2026-04-30 18:32 | 6.01320 | -75.26817 | 15801 ft | 292 kts | 192° |
| 2026-04-30 18:32 | 5.99370 | -75.27348 | 15370 ft | 287 kts | 192° |
| 2026-04-30 18:32 | 5.95659 | -75.28364 | 15088 ft | 265 kts | 192° |
| 2026-04-30 18:33 | 5.93928 | -75.28837 | 14995 ft | 252 kts | 192° |
| 2026-04-30 18:33 | 5.90633 | -75.29736 | 14599 ft | 239 kts | 194° |
| 2026-04-30 18:33 | 5.89108 | -75.30404 | 14432 ft | 239 kts | 213° |
| 2026-04-30 18:34 | 5.88024 | -75.31654 | 14123 ft | 243 kts | 243° |
| 2026-04-30 18:34 | 5.87610 | -75.35088 | 13136 ft | 253 kts | 270° |
| 2026-04-30 18:34 | 5.87615 | -75.36800 | 12670 ft | 239 kts | 269° |
| 2026-04-30 18:35 | 5.87603 | -75.38407 | 12473 ft | 216 kts | 269° |
| 2026-04-30 18:35 | 5.87749 | -75.39879 | 12370 ft | 210 kts | 287° |
| 2026-04-30 18:35 | 5.88467 | -75.41084 | 12289 ft | 199 kts | 318° |
| 2026-04-30 18:36 | 5.90833 | -75.42295 | 11591 ft | 184 kts | 359° |
| 2026-04-30 18:36 | 5.92097 | -75.42257 | 11344 ft | 181 kts | 9° |
| 2026-04-30 18:36 | 5.94616 | -75.42133 | 10827 ft | 179 kts | 1° |
| 2026-04-30 18:37 | 5.95849 | -75.42171 | 10487 ft | 176 kts | 2° |
| 2026-04-30 18:37 | 5.97064 | -75.42186 | 10267 ft | 172 kts | 4° |
| 2026-04-30 18:37 | 5.98278 | -75.42188 | 10065 ft | 175 kts | 3° |
| 2026-04-30 18:37 | 5.99512 | -75.42196 | 9791 ft | 173 kts | 2° |
| 2026-04-30 18:38 | 6.00715 | -75.42218 | 9575 ft | 174 kts | 2° |
| 2026-04-30 18:38 | 6.01923 | -75.42222 | 9328 ft | 172 kts | 3° |
| 2026-04-30 18:38 | 6.03128 | -75.42217 | 9131 ft | 172 kts | 2° |
| 2026-04-30 18:38 | 6.04319 | -75.42226 | 8906 ft | 171 kts | 2° |
| 2026-04-30 18:39 | 6.05515 | -75.42236 | 8680 ft | 169 kts | 2° |
| 2026-04-30 18:39 | 6.06693 | -75.42248 | 8471 ft | 169 kts | 2° |
| 2026-04-30 18:39 | 6.07878 | -75.42253 | 8247 ft | 167 kts | 1° |
| 2026-04-30 18:39 | 6.09044 | -75.42276 | 8060 ft | 168 kts | 358° |
| 2026-04-30 18:40 | 6.10212 | -75.42352 | 7843 ft | 166 kts | 2° |
| 2026-04-30 18:40 | 6.11366 | -75.42322 | 7667 ft | 162 kts | 4° |
| 2026-04-30 18:40 | 6.12500 | -75.42298 | 7404 ft | 163 kts | 2° |
| 2026-04-30 18:40 | 6.13634 | -75.42294 | 7213 ft | 164 kts | 1° |
| 2026-04-30 18:41 | 6.14780 | -75.42300 | 7015 ft | 163 kts | 1° |
| 2026-04-30 18:41 | 6.15871 | -75.42310 | 6963 ft | 138 kts | 1° |
| 2026-04-30 18:41 | 6.16604 | -75.42313 | 6967 ft | 71 kts | 1° |
| 2026-04-30 18:41 | 6.16964 | -75.42342 | 6979 ft | 41 kts | 341° |
| 2026-04-30 18:42 | 6.17150 | -75.42443 | 6987 ft | 14 kts | 329° |
| 2026-04-30 18:42 | 6.17187 | -75.42532 | 6990 ft | 5 kts | 270° |
| 2026-04-30 18:42 | 6.17187 | -75.42564 | 6992 ft | 2 kts | 269° |
| 2026-04-30 18:45 | 6.17096 | -75.42674 | 6994 ft | 0 kts | 278° |